Time;durP1;ratioP1;P1;durP2;ratioP2;P2;SDS_P1;SDS_P2;PMS_P1;PMS_P2;Temp;Humidity;BMP_temperature;BMP_pressure;BME280_temperature;BME280_humidity;BME280_pressure;Samples;Min_cycle;Max_cycle;Signal;HPM_P1;HPM_P2
2024/03/26 00:00:32;;;;;;;;;9.00;9.00;;;;;-143.90;100.00;75697.38;4847090;28;102528;-71
2024/03/26 00:02:58;;;;;;;;;14.50;9.00;;;;;-143.90;100.00;75699.44;4850614;28;102102;-70
2024/03/26 00:05:24;;;;;;;;;15.50;12.75;;;;;-143.90;100.00;75701.50;4854580;28;102377;-71
2024/03/26 00:07:49;;;;;;;;;9.25;5.75;;;;;-143.90;100.00;75701.50;4848336;28;107685;-71
2024/03/26 00:10:16;;;;;;;;;12.50;8.00;;;;;-143.90;100.00;75709.78;4842395;28;102483;-71
2024/03/26 00:12:43;;;;;;;;;10.00;9.00;;;;;-143.90;100.00;75713.91;4853532;28;102088;-71
2024/03/26 00:15:08;;;;;;;;;12.25;10.00;;;;;-143.90;100.00;75724.25;4856430;28;102393;-71
2024/03/26 00:17:34;;;;;;;;;7.25;2.00;;;;;-143.90;100.00;75722.19;4847816;28;104906;-71
2024/03/26 00:20:00;;;;;;;;;7.25;7.25;;;;;-143.90;100.00;75728.38;4827124;28;102074;-71
2024/03/26 00:22:25;;;;;;;;;9.25;8.75;;;;;-143.90;100.00;75738.72;4829156;28;102514;-71
2024/03/26 00:24:51;;;;;;;;;6.00;5.75;;;;;-143.90;100.00;75744.94;4854030;28;102503;-71
2024/03/26 00:27:16;;;;;;;;;8.50;7.75;;;;;-143.90;100.00;75747.00;4833501;28;106054;-72
2024/03/26 00:29:42;;;;;;;;;8.00;4.25;;;;;-143.90;100.00;75751.13;4835835;28;102413;-71
2024/03/26 00:32:07;;;;;;;;;9.00;8.00;;;;;-143.90;100.00;75749.06;4820088;28;102942;-71
2024/03/26 00:34:34;;;;;;;;;4.00;3.75;;;;;-143.90;100.00;75755.28;4832899;28;101989;-70
2024/03/26 00:36:59;;;;;;;;;10.00;5.50;;;;;-143.90;100.00;75753.19;4832635;28;104984;-70
2024/03/26 00:39:25;;;;;;;;;7.00;5.50;;;;;-143.90;100.00;75755.28;4834810;28;102025;-70
2024/03/26 00:41:50;;;;;;;;;4.50;3.25;;;;;-143.90;100.00;75763.53;4836168;28;102279;-71
2024/03/26 00:44:16;;;;;;;;;5.50;5.00;;;;;-143.90;100.00;75767.69;4828230;28;102641;-71
2024/03/26 00:46:41;;;;;;;;;14.25;9.00;;;;;-143.90;100.00;75767.69;4833317;28;104431;-71
2024/03/26 00:49:07;;;;;;;;;3.75;3.75;;;;;-143.90;100.00;75775.94;4844612;28;102265;-71
2024/03/26 00:51:33;;;;;;;;;5.75;5.75;;;;;-143.90;100.00;75775.94;4829303;28;102765;-71
2024/03/26 00:53:58;;;;;;;;;8.75;7.00;;;;;-143.90;100.00;75784.22;4826575;28;102420;-71
2024/03/26 00:56:24;;;;;;;;;8.00;8.00;;;;;-143.90;100.00;75782.16;4826307;28;104450;-71
2024/03/26 00:58:50;;;;;;;;;12.75;9.50;;;;;-143.90;100.00;75784.22;4830756;28;102426;-71
2024/03/26 01:01:15;;;;;;;;;33.00;27.67;;;;;-143.90;100.00;75796.63;4828297;28;102493;-71
2024/03/26 01:03:41;;;;;;;;;20.00;16.33;;;;;-143.90;100.00;75792.50;4831860;28;102371;-71
2024/03/26 01:06:06;;;;;;;;;24.00;22.33;;;;;-143.90;100.00;75792.50;4820133;28;104323;-70
2024/03/26 01:08:32;;;;;;;;;62.33;48.33;;;;;-143.90;100.00;75809.03;4832658;28;103592;-72
2024/03/26 01:10:57;;;;;;;;;62.67;48.00;;;;;-143.90;100.00;75817.31;4830437;28;105218;-71
2024/03/26 01:13:23;;;;;;;;;68.00;54.00;;;;;-143.90;100.00;75833.84;4830027;28;102618;-71
2024/03/26 01:15:48;;;;;;;;;77.25;59.75;;;;;-143.90;100.00;75842.13;4827434;28;104509;-72
2024/03/26 01:18:14;;;;;;;;;71.00;55.33;;;;;-143.90;100.00;75842.13;4830818;28;102111;-71
2024/03/26 01:20:43;;;;;;;;;75.00;59.50;;;;;-143.90;100.00;75858.66;4847488;28;105465;-71
2024/03/26 01:23:09;;;;;;;;;75.67;58.33;;;;;-143.90;100.00;75866.94;4843417;28;102135;-71
2024/03/26 01:25:35;;;;;;;;;80.00;56.33;;;;;-143.90;100.00;75875.19;4847623;28;105067;-71
2024/03/26 01:28:02;;;;;;;;;67.67;52.67;;;;;-143.90;100.00;75875.19;4839990;28;102277;-71
2024/03/26 01:30:27;;;;;;;;;60.33;47.67;;;;;-143.90;100.00;75871.06;4847398;28;102268;-71
2024/03/26 01:32:53;;;;;;;;;63.33;49.00;;;;;-143.90;100.00;75875.19;4868152;28;102135;-70
2024/03/26 01:35:18;;;;;;;;;48.67;43.33;;;;;-143.90;100.00;75875.19;4839378;28;105100;-71
2024/03/26 01:37:45;;;;;;;;;50.33;40.67;;;;;-143.90;100.00;75875.19;4838588;28;102134;-71
2024/03/26 01:40:11;;;;;;;;;46.00;35.67;;;;;-143.90;100.00;75866.94;4836178;28;102611;-71
2024/03/26 01:42:38;;;;;;;;;58.00;48.00;;;;;-143.90;100.00;75885.53;4850714;28;102676;-71
2024/03/26 01:45:05;;;;;;;;;53.00;45.00;;;;;-143.90;100.00;75879.34;4844551;28;104828;-73
2024/03/26 01:47:31;;;;;;;;;49.67;44.00;;;;;-143.90;100.00;75889.66;4843615;28;102316;-71
2024/03/26 01:49:59;;;;;;;;;64.00;48.00;;;;;-143.90;100.00;75891.75;4842192;28;103687;-72
2024/03/26 01:52:26;;;;;;;;;77.50;60.25;;;;;-143.90;100.00;75920.69;4837822;28;105091;-71
2024/03/26 01:54:54;;;;;;;;;72.33;55.67;;;;;-143.90;100.00;75931.03;4856757;28;109129;-72
2024/03/26 01:57:20;;;;;;;;;77.75;58.00;;;;;-143.90;100.00;75937.22;4839793;28;104118;-71
2024/03/26 01:59:46;;;;;;;;;69.33;53.33;;;;;-143.90;100.00;75937.22;4844848;28;102166;-71
2024/03/26 02:02:12;;;;;;;;;69.33;50.67;;;;;-143.90;100.00;75943.44;4834398;28;102095;-71
2024/03/26 02:04:38;;;;;;;;;61.33;44.00;;;;;-143.90;100.00;75943.44;4845032;28;102682;-71
2024/03/26 02:07:04;;;;;;;;;53.67;44.00;;;;;-143.90;100.00;75939.28;4848871;28;102953;-71
2024/03/26 02:09:30;;;;;;;;;60.67;48.00;;;;;-143.90;100.00;75947.56;4844290;28;102286;-72
2024/03/26 02:11:56;;;;;;;;;65.33;48.00;;;;;-143.90;100.00;75953.78;4848787;28;102496;-70
2024/03/26 02:14:24;;;;;;;;;68.00;49.67;;;;;-143.90;100.00;75949.63;4842415;28;109014;-71
2024/03/26 02:16:50;;;;;;;;;43.00;28.67;;;;;-143.90;100.00;75951.69;4845776;28;102713;-71
2024/03/26 02:19:17;;;;;;;;;48.00;41.00;;;;;-143.90;100.00;75962.03;4847992;28;102101;-71
2024/03/26 02:21:42;;;;;;;;;54.00;44.00;;;;;-143.90;100.00;75962.03;4850774;28;104866;-71
2024/03/26 02:24:08;;;;;;;;;41.33;30.33;;;;;-143.90;100.00;75976.53;4853433;28;104628;-71
2024/03/26 02:26:33;;;;;;;;;38.00;34.67;;;;;-143.90;100.00;75976.53;4848882;28;105413;-71
2024/03/26 02:28:59;;;;;;;;;39.33;31.00;;;;;-143.90;100.00;75982.72;4854170;28;102400;-71
2024/03/26 02:31:24;;;;;;;;;45.33;33.00;;;;;-143.90;100.00;75988.94;4869968;28;102503;-71
2024/03/26 02:33:50;;;;;;;;;32.67;28.67;;;;;-143.90;100.00;75986.84;4845616;28;104663;-71
2024/03/26 02:36:15;;;;;;;;;30.00;25.00;;;;;-143.90;100.00;75997.19;4839329;28;104479;-72
2024/03/26 02:38:41;;;;;;;;;50.00;43.00;;;;;-143.90;100.00;76015.81;4852545;28;103949;-71
2024/03/26 02:41:07;;;;;;;;;64.33;52.67;;;;;-143.90;100.00;76030.28;4852382;28;102761;-71
2024/03/26 02:43:33;;;;;;;;;60.00;48.00;;;;;-143.90;100.00;76017.88;4849262;28;102582;-71
2024/03/26 02:45:59;;;;;;;;;51.67;41.67;;;;;-143.90;100.00;76026.16;4846041;28;102190;-71
2024/03/26 02:48:25;;;;;;;;;59.33;48.00;;;;;-143.90;100.00;76040.63;4847143;28;102097;-71
2024/03/26 02:50:51;;;;;;;;;72.00;57.00;;;;;-143.90;100.00;76042.69;4842845;28;102458;-71
2024/03/26 02:53:18;;;;;;;;;51.67;43.00;;;;;-143.90;100.00;76044.75;4857549;28;104604;-71
2024/03/26 02:55:44;;;;;;;;;50.33;41.33;;;;;-143.90;100.00;76040.63;4851183;28;102913;-71
2024/03/26 02:58:10;;;;;;;;;49.33;41.33;;;;;-143.90;100.00;76036.47;4842317;28;102322;-70
2024/03/26 03:00:35;;;;;;;;;45.33;38.67;;;;;-143.90;100.00;76044.75;4848224;28;105154;-70
2024/03/26 03:03:01;;;;;;;;;67.75;53.50;;;;;-143.90;100.00;76053.03;4848634;28;104677;-70
2024/03/26 03:05:26;;;;;;;;;58.50;48.25;;;;;-143.90;100.00;76050.97;4856303;28;102607;-69
2024/03/26 03:07:52;;;;;;;;;78.00;58.25;;;;;-143.90;100.00;76059.22;4848386;28;102653;-71
2024/03/26 03:10:18;;;;;;;;;87.00;66.00;;;;;-143.90;100.00;76067.50;4837265;28;102534;-71
2024/03/26 03:12:43;;;;;;;;;78.50;54.25;;;;;-143.90;100.00;76069.56;4849512;28;104474;-71
2024/03/26 03:15:09;;;;;;;;;64.75;51.00;;;;;-143.90;100.00;76065.44;4848330;28;102751;-71
2024/03/26 03:17:34;;;;;;;;;54.00;44.33;;;;;-143.90;100.00;76067.50;4841752;28;102661;-71
2024/03/26 03:20:00;;;;;;;;;57.00;43.67;;;;;-143.90;100.00;76077.84;4845192;28;102675;-71
2024/03/26 03:22:26;;;;;;;;;90.00;66.00;;;;;-143.90;100.00;76106.78;4863810;28;104912;-70
2024/03/26 03:24:52;;;;;;;;;90.00;66.75;;;;;-143.90;100.00;76094.38;4848226;28;102196;-71
2024/03/26 03:27:17;;;;;;;;;83.75;67.50;;;;;-143.90;100.00;76110.94;4853260;28;101963;-70
2024/03/26 03:29:43;;;;;;;;;97.25;73.00;;;;;-143.90;100.00;76094.38;4863572;28;102397;-70
2024/03/26 03:32:09;;;;;;;;;88.75;61.50;;;;;-143.90;100.00;76092.31;4837481;28;104793;-71
2024/03/26 03:34:34;;;;;;;;;83.75;64.25;;;;;-143.90;100.00;76086.13;4854284;28;102370;-71
2024/03/26 03:37:00;;;;;;;;;103.75;76.75;;;;;-143.90;100.00;76092.31;4873877;28;102117;-70
2024/03/26 03:39:25;;;;;;;;;102.25;82.00;;;;;-143.90;100.00;76096.44;4859857;28;102277;-70
2024/03/26 03:41:51;;;;;;;;;97.00;71.75;;;;;-143.90;100.00;76100.59;4859509;28;104411;-70
2024/03/26 03:44:17;;;;;;;;;89.50;61.75;;;;;-143.90;100.00;76090.25;4846086;28;102284;-70
2024/03/26 03:46:42;;;;;;;;;83.50;61.50;;;;;-143.90;100.00;76084.03;4848203;28;102096;-70
2024/03/26 03:49:08;;;;;;;;;96.25;70.25;;;;;-143.90;100.00;76096.44;4851263;28;102507;-70
2024/03/26 03:51:33;;;;;;;;;89.00;69.00;;;;;-143.90;100.00;76094.38;4853074;28;104514;-70
2024/03/26 03:53:59;;;;;;;;;95.50;74.50;;;;;-143.90;100.00;76104.72;4851540;28;102330;-70
2024/03/26 03:56:25;;;;;;;;;100.75;73.00;;;;;-143.90;100.00;76110.94;4845960;28;102483;-70
2024/03/26 03:58:50;;;;;;;;;101.75;69.25;;;;;-143.90;100.00;76113.00;4852961;28;102236;-70
2024/03/26 04:01:16;;;;;;;;;88.00;65.50;;;;;-143.90;100.00;76110.94;4854548;28;104522;-70
2024/03/26 04:03:41;;;;;;;;;76.00;56.25;;;;;-143.90;100.00;76106.78;4857928;28;103021;-70
2024/03/26 04:06:07;;;;;;;;;68.75;53.25;;;;;-143.90;100.00;76102.66;4848459;28;102942;-70
2024/03/26 04:08:32;;;;;;;;;66.00;47.25;;;;;-143.90;100.00;76100.59;4862676;28;102512;-70
2024/03/26 04:11:00;;;;;;;;;57.33;45.00;;;;;-143.90;100.00;76096.44;4857159;28;104580;-70
2024/03/26 04:13:26;;;;;;;;;40.00;37.00;;;;;-143.90;100.00;76098.53;4872243;28;102964;-70
2024/03/26 04:15:52;;;;;;;;;24.00;24.00;;;;;-143.90;100.00;76086.13;4847986;28;102744;-70
2024/03/26 04:18:17;;;;;;;;;32.00;25.00;;;;;-143.90;100.00;76098.53;4845647;28;102409;-70
2024/03/26 04:20:43;;;;;;;;;24.67;18.67;;;;;-143.90;100.00;76098.53;4855334;28;104407;-70
2024/03/26 04:23:09;;;;;;;;;38.67;31.67;;;;;-143.90;100.00;76098.53;4854965;28;102526;-70
2024/03/26 04:25:35;;;;;;;;;47.00;40.00;;;;;-143.90;100.00;76096.44;4852974;28;103179;-70
2024/03/26 04:28:01;;;;;;;;;63.00;49.67;;;;;-143.90;100.00;76110.94;4848474;28;102034;-70
2024/03/26 04:30:26;;;;;;;;;81.25;57.75;;;;;-143.90;100.00;76106.78;4859216;28;104878;-70
2024/03/26 04:32:52;;;;;;;;;85.25;62.75;;;;;-143.90;100.00;76115.06;4857496;28;102113;-70
2024/03/26 04:35:17;;;;;;;;;95.00;69.75;;;;;-143.90;100.00;76125.41;4848334;28;102309;-70
2024/03/26 04:37:43;;;;;;;;;74.00;56.00;;;;;-143.90;100.00;76119.19;4856854;28;105069;-70
2024/03/26 04:40:09;;;;;;;;;92.00;66.25;;;;;-143.90;100.00;76117.13;4839057;28;105344;-70
2024/03/26 04:42:34;;;;;;;;;80.00;61.50;;;;;-143.90;100.00;76115.06;4853495;28;103496;-69
2024/03/26 04:45:00;;;;;;;;;69.50;51.25;;;;;-143.90;100.00;76108.84;4852879;28;102562;-69
2024/03/26 04:47:26;;;;;;;;;75.50;56.50;;;;;-143.90;100.00;76115.06;4855166;28;104955;-69
2024/03/26 04:49:51;;;;;;;;;67.00;50.50;;;;;-143.90;100.00;76121.28;4871579;28;104564;-69
2024/03/26 04:52:17;;;;;;;;;78.50;59.00;;;;;-143.90;100.00;76121.28;4842273;28;102355;-70
2024/03/26 04:54:42;;;;;;;;;73.50;53.25;;;;;-143.90;100.00;76115.06;4851288;28;102043;-70
2024/03/26 04:57:08;;;;;;;;;56.67;45.33;;;;;-143.90;100.00;76100.59;4849444;28;102201;-70
2024/03/26 04:59:34;;;;;;;;;26.67;17.67;;;;;-143.90;100.00;76094.38;4850615;28;104431;-70
2024/03/26 05:01:59;;;;;;;;;43.67;36.67;;;;;-143.90;100.00;76086.13;4843260;28;102194;-70
2024/03/26 05:04:25;;;;;;;;;7.00;2.00;;;;;-143.90;100.00;76084.03;4844380;28;104300;-69
2024/03/26 05:06:51;;;;;;;;;34.67;27.67;;;;;-143.90;100.00;76077.84;4849088;28;102265;-69
2024/03/26 05:09:17;;;;;;;;;45.00;32.00;;;;;-143.90;100.00;76073.72;4848227;28;104498;-69
2024/03/26 05:11:42;;;;;;;;;32.67;27.67;;;;;-143.90;100.00;76071.63;4851390;28;102024;-69
2024/03/26 05:14:08;;;;;;;;;24.33;20.67;;;;;-143.90;100.00;76061.31;4823186;28;102430;-69
2024/03/26 05:16:34;;;;;;;;;31.00;28.33;;;;;-143.90;100.00;76055.09;4849569;28;101915;-69
2024/03/26 05:18:59;;;;;;;;;35.00;29.67;;;;;-143.90;100.00;76044.75;4848868;28;104939;-70
2024/03/26 05:21:25;;;;;;;;;64.25;48.50;;;;;-143.90;100.00;76009.59;4852664;28;102466;-69
2024/03/26 05:23:51;;;;;;;;;59.00;44.00;;;;;-143.90;100.00;75968.25;4847432;28;102954;-70
2024/03/26 05:26:16;;;;;;;;;43.00;38.00;;;;;-143.90;100.00;75957.91;4842330;28;102841;-70
2024/03/26 05:28:42;;;;;;;;;45.33;32.00;;;;;-143.90;100.00;75947.56;4850439;28;104658;-71
2024/03/26 05:31:16;;;;;;;;;48.33;34.33;;;;;-143.90;100.00;75935.16;4850927;28;102228;-71
2024/03/26 05:33:42;;;;;;;;;57.33;44.00;;;;;-143.90;100.00;75900.00;4848068;28;103544;-72
2024/03/26 05:36:08;;;;;;;;;53.67;45.33;;;;;-143.90;100.00;75871.06;4843936;28;102179;-72
2024/03/26 05:38:33;;;;;;;;;67.00;48.00;;;;;-143.90;100.00;75854.53;4856965;28;104581;-72
2024/03/26 05:40:59;;;;;;;;;68.33;48.67;;;;;-143.90;100.00;75833.84;4849017;28;102594;-72
2024/03/26 05:43:24;;;;;;;;;65.67;49.33;;;;;-143.90;100.00;75813.16;4847107;28;102458;-73
2024/03/26 05:45:50;;;;;;;;;65.67;49.00;;;;;-143.90;100.00;75802.81;4851349;28;102847;-74
2024/03/26 05:48:16;;;;;;;;;61.00;47.33;;;;;-143.90;100.00;75788.34;4839952;28;104408;-73
2024/03/26 05:50:41;;;;;;;;;59.00;46.00;;;;;-143.90;100.00;75778.00;4849475;28;102152;-73
2024/03/26 05:53:07;;;;;;;;;52.00;44.33;;;;;-143.90;100.00;75767.69;4843075;28;103156;-73
2024/03/26 05:55:32;;;;;;;;;58.00;45.00;;;;;-143.90;100.00;75763.53;4855591;28;103060;-73
2024/03/26 05:57:58;;;;;;;;;58.00;46.33;;;;;-143.90;100.00;75742.88;4848473;28;104464;-73
2024/03/26 06:00:24;;;;;;;;;56.67;43.67;;;;;-143.90;100.00;75730.47;4855668;28;102109;-73
2024/03/26 06:02:49;;;;;;;;;55.00;43.33;;;;;-143.90;100.00;75720.13;4852480;28;102369;-73
2024/03/26 06:05:15;;;;;;;;;57.67;43.33;;;;;-143.90;100.00;75701.50;4851598;28;102462;-73
2024/03/26 06:07:41;;;;;;;;;34.67;31.33;;;;;-143.90;100.00;75689.09;4854787;28;104450;-73
2024/03/26 06:10:07;;;;;;;;;31.67;24.00;;;;;-143.90;100.00;75662.22;4840830;28;102752;-73
2024/03/26 06:12:32;;;;;;;;;27.00;24.00;;;;;-143.90;100.00;75651.88;4845909;28;102931;-73
2024/03/26 06:14:58;;;;;;;;;25.00;19.00;;;;;-143.90;100.00;75635.34;4857153;28;102843;-73
2024/03/26 06:17:23;;;;;;;;;28.33;24.33;;;;;-143.90;100.00;75627.06;4867957;28;104598;-73
2024/03/26 06:19:49;;;;;;;;;19.00;13.25;;;;;-143.90;100.00;75610.53;4851969;28;102512;-73
2024/03/26 06:22:15;;;;;;;;;19.75;17.75;;;;;-143.90;100.00;75594.00;4840490;28;102715;-73
2024/03/26 06:24:40;;;;;;;;;20.50;16.25;;;;;-143.90;100.00;75573.31;4853727;28;102380;-73
2024/03/26 06:27:07;;;;;;;;;27.00;25.00;;;;;-143.90;100.00;75544.38;4853550;28;105000;-73
2024/03/26 06:29:33;;;;;;;;;31.33;27.00;;;;;-143.90;100.00;75482.34;4857885;28;104661;-73
2024/03/26 06:31:58;;;;;;;;;28.50;24.25;;;;;-143.90;100.00;75414.13;4846965;28;105014;-73
2024/03/26 06:34:24;;;;;;;;;30.25;27.00;;;;;-143.90;100.00;75325.22;4850653;28;102526;-73
2024/03/26 06:36:50;;;;;;;;;24.50;22.75;;;;;-143.90;100.00;75261.13;4853604;28;104532;-73
2024/03/26 06:39:18;;;;;;;;;25.00;20.50;;;;;-143.90;100.00;75261.13;4853391;28;102777;-74
2024/03/26 06:41:44;;;;;;;;;21.25;19.00;;;;;-143.90;100.00;75265.25;4859580;28;102444;-73
2024/03/26 06:44:10;;;;;;;;;20.00;18.25;;;;;-143.90;100.00;75275.59;4843812;28;102242;-73
2024/03/26 06:46:37;;;;;;;;;32.00;21.75;;;;;-143.90;100.00;75269.38;4856980;28;104570;-72
2024/03/26 06:49:02;;;;;;;;;17.50;15.50;;;;;-143.90;100.00;75242.50;4853760;28;102341;-72
2024/03/26 06:51:28;;;;;;;;;16.50;13.00;;;;;-143.90;100.00;75242.50;4852179;28;102220;-72
2024/03/26 06:53:53;;;;;;;;;21.00;19.50;;;;;-143.90;100.00;75234.25;4855394;28;102284;-72
2024/03/26 06:56:20;;;;;;;;;23.25;17.25;;;;;-143.90;100.00;75217.69;4839590;28;104637;-72
2024/03/26 06:58:46;;;;;;;;;14.50;14.00;;;;;-143.90;100.00;75188.75;4855764;28;102700;-72
2024/03/26 07:01:12;;;;;;;;;18.25;15.25;;;;;-143.90;100.00;75203.22;4865912;28;102150;-72
2024/03/26 07:03:38;;;;;;;;;30.00;25.50;;;;;-143.90;100.00;75230.09;4862094;28;102712;-73
2024/03/26 07:06:06;;;;;;;;;20.50;17.00;;;;;-143.90;100.00;75194.97;4842833;28;104535;-71
2024/03/26 07:08:32;;;;;;;;;19.25;14.00;;;;;-143.90;100.00;75176.34;4871312;28;102393;-73
2024/03/26 07:10:58;;;;;;;;;18.25;15.50;;;;;-143.90;100.00;75135.00;4852123;28;101882;-72
2024/03/26 07:13:27;;;;;;;;;7.00;7.00;;;;;-143.90;100.00;75101.94;4859338;28;102701;-73
2024/03/26 07:15:53;;;;;;;;;13.00;9.50;;;;;-143.90;100.00;75068.84;4851154;28;107582;-73
2024/03/26 07:18:19;;;;;;;;;16.75;14.75;;;;;-143.90;100.00;75093.66;4828431;28;102571;-73
2024/03/26 07:20:46;;;;;;;;;18.00;16.25;;;;;-143.90;100.00;75072.97;4831251;28;102313;-73
2024/03/26 07:23:12;;;;;;;;;14.25;14.00;;;;;-143.90;100.00;75077.13;4828854;28;102067;-73
2024/03/26 07:25:38;;;;;;;;;18.00;14.50;;;;;-143.90;100.00;75066.78;4831728;28;104584;-73
2024/03/26 07:28:04;;;;;;;;;12.75;10.75;;;;;-143.90;100.00;75056.44;4825150;28;101877;-71
2024/03/26 07:30:29;;;;;;;;;17.00;11.50;;;;;-143.90;100.00;75056.44;4843900;28;102371;-73
2024/03/26 07:32:55;;;;;;;;;17.25;15.50;;;;;-143.90;100.00;75039.91;4837331;28;102221;-73
2024/03/26 07:35:22;;;;;;;;;14.00;11.50;;;;;-143.90;100.00;75015.09;4830340;28;108412;-73
2024/03/26 07:37:48;;;;;;;;;11.75;11.00;;;;;-143.90;100.00;75002.69;4830004;28;103760;-73
2024/03/26 07:40:15;;;;;;;;;18.50;14.75;;;;;-143.90;100.00;74986.16;4824816;28;103142;-73
2024/03/26 07:42:41;;;;;;;;;18.50;17.00;;;;;-143.90;100.00;74986.16;4826727;28;102751;-73
2024/03/26 07:45:08;;;;;;;;;23.25;21.25;;;;;-143.90;100.00;75004.75;4828881;28;104664;-73
2024/03/26 07:47:34;;;;;;;;;27.50;23.75;;;;;-143.90;100.00;75025.44;4829244;28;104899;-73
2024/03/26 07:50:00;;;;;;;;;28.25;22.50;;;;;-143.90;100.00;75004.75;4824648;28;103762;-73
2024/03/26 07:52:27;;;;;;;;;27.00;23.25;;;;;-143.90;100.00;74998.56;4827628;28;102230;-73
2024/03/26 07:54:52;;;;;;;;;20.75;18.75;;;;;-143.90;100.00;74994.44;4832487;28;109055;-74
2024/03/26 07:57:18;;;;;;;;;27.00;25.00;;;;;-143.90;100.00;74977.88;4828596;28;102419;-73
2024/03/26 07:59:44;;;;;;;;;23.25;21.00;;;;;-143.90;100.00;74963.41;4835051;28;102263;-73
2024/03/26 08:02:11;;;;;;;;;18.50;15.25;;;;;-143.90;100.00;74955.16;4820716;28;102601;-72
2024/03/26 08:04:42;;;;;;;;;15.00;14.25;;;;;-143.90;100.00;74948.94;4828600;28;104593;-73
2024/03/26 08:07:08;;;;;;;;;15.00;13.00;;;;;-143.90;100.00;74915.88;4827456;28;104795;-73
2024/03/26 08:09:33;;;;;;;;;16.00;14.00;;;;;-143.90;100.00;74882.78;4832997;28;102788;-73
2024/03/26 08:11:59;;;;;;;;;14.50;13.25;;;;;-143.90;100.00;74866.25;4828497;28;102594;-73
2024/03/26 08:14:25;;;;;;;;;18.00;13.75;;;;;-143.90;100.00;74878.66;4842097;28;105150;-73
2024/03/26 08:16:51;;;;;;;;;17.75;15.50;;;;;-143.90;74.14;74874.53;4819404;28;102640;-73
2024/03/26 08:19:18;;;;;;;;;16.25;14.00;;;;;-143.90;76.97;74843.53;4860830;28;102298;-72
2024/03/26 08:21:43;;;;;;;;;16.00;14.75;;;;;-143.90;72.75;74824.91;4849383;28;104258;-72
2024/03/26 08:24:09;;;;;;;;;15.50;13.00;;;;;-143.90;73.04;74806.31;4842683;28;105074;-72
2024/03/26 08:26:34;;;;;;;;;14.50;11.25;;;;;-143.90;73.05;74773.22;4850488;28;102528;-73
2024/03/26 08:29:00;;;;;;;;;14.75;13.75;;;;;-143.90;75.39;74717.41;4849363;28;103450;-72
2024/03/26 08:31:26;;;;;;;;;12.25;10.75;;;;;-143.90;65.74;74709.16;4859476;28;102454;-73
2024/03/26 08:33:52;;;;;;;;;9.00;9.00;;;;;-143.90;65.55;74665.75;4859840;28;104587;-73
2024/03/26 08:36:17;;;;;;;;;11.00;9.50;;;;;-143.90;63.25;74659.53;4862615;28;102323;-74
2024/03/26 08:38:43;;;;;;;;;9.00;8.75;;;;;-143.90;61.36;74647.13;4857527;28;103562;-73
2024/03/26 08:41:08;;;;;;;;;8.50;8.00;;;;;-143.90;61.02;74651.28;4849483;28;102733;-73
2024/03/26 08:43:34;;;;;;;;;8.75;8.00;;;;;-143.90;57.89;74649.19;4851252;28;104477;-73
2024/03/26 08:46:00;;;;;;;;;9.50;8.75;;;;;-143.90;59.84;74626.47;4849092;28;102404;-73
2024/03/26 08:48:26;;;;;;;;;5.00;4.75;;;;;-143.90;58.24;74612.00;4852009;28;102616;-74
2024/03/26 08:50:51;;;;;;;;;7.00;7.00;;;;;-143.90;55.94;74603.72;4851437;28;102430;-74
2024/03/26 08:53:17;;;;;;;;;3.50;2.75;;;;;-143.90;58.48;74578.91;4849776;28;104591;-73
2024/03/26 08:55:43;;;;;;;;;6.75;6.75;;;;;-143.90;58.57;74568.59;4848619;28;102666;-73
2024/03/26 08:58:09;;;;;;;;;7.75;7.75;;;;;-143.90;57.02;74552.03;4838793;28;101974;-74
2024/03/26 09:00:35;;;;;;;;;8.00;8.00;;;;;-143.90;60.83;74552.03;4853571;28;102222;-74
2024/03/26 09:03:01;;;;;;;;;6.00;6.00;;;;;-143.90;55.31;74523.09;4852480;28;104622;-73
2024/03/26 09:05:27;;;;;;;;;5.00;5.00;;;;;-143.90;54.30;74516.91;4867010;28;102391;-74
2024/03/26 09:07:53;;;;;;;;;5.00;4.00;;;;;-143.90;54.47;74477.63;4845954;28;102802;-73
2024/03/26 09:10:19;;;;;;;;;3.50;3.50;;;;;-143.90;53.21;74465.22;4843513;28;102511;-73
2024/03/26 09:12:45;;;;;;;;;2.25;2.25;;;;;-143.90;51.17;74479.69;4853623;28;104604;-73
2024/03/26 09:15:11;;;;;;;;;7.00;6.00;;;;;-143.90;54.86;74487.97;4847660;28;102996;-73
2024/03/26 09:17:37;;;;;;;;;5.00;5.00;;;;;-143.90;52.43;74471.44;4856302;28;103102;-72
2024/03/26 09:20:05;;;;;;;;;6.00;6.00;;;;;-143.90;50.82;74475.56;4846626;28;102517;-73
2024/03/26 09:22:31;;;;;;;;;5.50;5.00;;;;;-143.90;51.09;74469.38;4849294;28;104640;-72
2024/03/26 09:24:57;;;;;;;;;4.25;3.25;;;;;-143.90;50.81;74446.63;4852003;28;103944;-72
2024/03/26 09:27:23;;;;;;;;;4.75;4.50;;;;;-143.90;49.52;74448.69;4873191;28;102208;-73
2024/03/26 09:29:49;;;;;;;;;3.75;3.00;;;;;-143.90;49.23;74442.50;4855377;28;102405;-73
2024/03/26 09:32:15;;;;;;;;;7.00;4.25;;;;;-143.90;50.46;74417.69;4836447;28;104442;-73
2024/03/26 09:34:40;;;;;;;;;3.00;3.00;;;;;-143.90;49.82;74411.50;4849971;28;102100;-72
2024/03/26 09:37:06;;;;;;;;;6.25;6.00;;;;;-143.90;50.79;74438.38;4855035;28;102360;-72
2024/03/26 09:39:33;;;;;;;;;8.75;7.75;;;;;-143.90;52.32;74448.69;4854136;28;102684;-72
2024/03/26 09:42:02;;;;;;;;;5.00;4.00;;;;;-143.90;52.31;74430.09;4850367;28;104833;-72
2024/03/26 09:44:30;;;;;;;;;5.50;4.50;;;;;-143.90;53.36;74392.88;4847836;28;102528;-72
2024/03/26 09:46:57;;;;;;;;;5.50;5.50;;;;;-143.90;51.07;74386.69;4860341;28;102040;-72
2024/03/26 09:49:26;;;;;;;;;3.50;3.00;;;;;-143.90;50.89;74361.88;4876777;28;102112;-73
2024/03/26 09:51:53;;;;;;;;;4.50;4.25;;;;;-143.90;50.43;74345.34;4855784;28;104633;-72
2024/03/26 09:54:19;;;;;;;;;4.50;3.00;;;;;-143.90;50.84;74341.22;4849014;28;102382;-72
2024/03/26 09:56:46;;;;;;;;;6.50;5.00;;;;;-143.90;50.26;74324.69;4848482;28;102270;-72
2024/03/26 09:59:11;;;;;;;;;5.50;5.00;;;;;-143.90;48.13;74314.34;4850221;28;102358;-72
2024/03/26 10:01:39;;;;;;;;;2.50;2.50;;;;;-143.90;47.95;74316.41;4850704;28;104768;-72
2024/03/26 10:04:04;;;;;;;;;2.75;2.75;;;;;-143.90;47.84;74283.34;4839768;28;102024;-72
2024/03/26 10:06:30;;;;;;;;;2.00;2.00;;;;;-143.90;47.75;74262.66;4850685;28;102313;-72
2024/03/26 10:08:58;;;;;;;;;3.75;3.75;;;;;-143.90;45.23;74279.22;4855952;28;102881;-71
2024/03/26 10:11:25;;;;;;;;;3.00;2.75;;;;;-143.90;44.83;74262.66;4853533;28;109176;-73
2024/03/26 10:13:54;;;;;;;;;2.00;2.00;;;;;-143.90;42.71;74252.34;4855326;28;102385;-73
2024/03/26 10:16:20;;;;;;;;;1.75;1.75;;;;;-143.90;42.08;74242.00;4847913;28;102227;-72
2024/03/26 10:18:49;;;;;;;;;3.50;3.00;;;;;-143.90;43.16;74242.00;4860531;28;102424;-73
2024/03/26 10:21:14;;;;;;;;;2.75;2.75;;;;;-143.90;43.80;74229.59;4851693;28;104656;-73
2024/03/26 10:23:40;;;;;;;;;2.00;2.00;;;;;-143.90;44.25;74200.66;4854033;28;102476;-73
2024/03/26 10:26:05;;;;;;;;;2.00;2.00;;;;;-143.90;44.39;74188.25;4847354;28;102171;-73
2024/03/26 10:28:31;;;;;;;;;4.75;4.00;;;;;-143.90;44.42;74167.59;4853100;28;102286;-72
2024/03/26 10:30:57;;;;;;;;;3.00;3.00;;;;;-143.90;44.70;74159.31;4856481;28;104956;-73
2024/03/26 10:33:26;;;;;;;;;6.00;3.00;;;;;-143.90;43.50;74155.19;4829542;28;102586;-72
2024/03/26 10:35:54;;;;;;;;;4.00;3.00;;;;;-143.90;44.01;74153.13;4847155;28;101900;-72
2024/03/26 10:38:21;;;;;;;;;4.00;3.00;;;;;-143.90;42.87;74146.91;4845087;28;103096;-74
2024/03/26 10:40:58;;;;;;;;;3.25;3.25;;;;;-143.90;43.85;74136.59;4853207;28;104676;-73
2024/03/26 10:43:25;;;;;;;;;4.00;4.00;;;;;-143.90;43.67;74136.59;4865128;28;101876;-73
2024/03/26 10:45:52;;;;;;;;;4.50;4.00;;;;;-143.90;44.59;74130.38;4857341;28;102043;-72